sensor_id;sensor_type;location;lat;lon;timestamp;P1;durP1;ratioP1;P2;durP2;ratioP2
36291;SDS011;22327;51.208;6.418;2023-08-31T00:01:00;6.07;;;2.72;;
36291;SDS011;22327;51.208;6.418;2023-08-31T00:04:03;5.25;;;3.13;;
36291;SDS011;22327;51.208;6.418;2023-08-31T00:07:05;5.97;;;3.13;;
36291;SDS011;22327;51.208;6.418;2023-08-31T00:10:07;5.05;;;3.50;;
36291;SDS011;22327;51.208;6.418;2023-08-31T00:13:11;7.50;;;3.20;;
36291;SDS011;22327;51.208;6.418;2023-08-31T00:16:12;6.97;;;3.50;;
36291;SDS011;22327;51.208;6.418;2023-08-31T00:19:13;8.55;;;3.67;;
36291;SDS011;22327;51.208;6.418;2023-08-31T00:22:14;5.00;;;3.28;;
36291;SDS011;22327;51.208;6.418;2023-08-31T00:25:15;7.65;;;3.72;;
36291;SDS011;22327;51.208;6.418;2023-08-31T00:28:15;8.82;;;3.67;;
36291;SDS011;22327;51.208;6.418;2023-08-31T00:31:18;6.95;;;3.50;;
36291;SDS011;22327;51.208;6.418;2023-08-31T00:34:19;8.63;;;4.15;;
36291;SDS011;22327;51.208;6.418;2023-08-31T00:37:19;7.85;;;3.70;;
36291;SDS011;22327;51.208;6.418;2023-08-31T00:40:21;6.57;;;3.97;;
36291;SDS011;22327;51.208;6.418;2023-08-31T00:43:22;6.72;;;3.33;;
36291;SDS011;22327;51.208;6.418;2023-08-31T00:46:22;4.75;;;3.42;;
36291;SDS011;22327;51.208;6.418;2023-08-31T00:49:23;9.38;;;3.95;;
36291;SDS011;22327;51.208;6.418;2023-08-31T00:52:24;7.03;;;3.63;;
36291;SDS011;22327;51.208;6.418;2023-08-31T00:55:24;8.68;;;4.47;;
36291;SDS011;22327;51.208;6.418;2023-08-31T00:58:26;8.63;;;4.25;;
36291;SDS011;22327;51.208;6.418;2023-08-31T01:01:30;7.60;;;4.18;;
36291;SDS011;22327;51.208;6.418;2023-08-31T01:07:57;8.57;;;4.50;;
36291;SDS011;22327;51.208;6.418;2023-08-31T01:11:13;5.43;;;3.88;;
36291;SDS011;22327;51.208;6.418;2023-08-31T01:14:24;8.80;;;3.90;;
36291;SDS011;22327;51.208;6.418;2023-08-31T01:17:32;7.43;;;3.95;;
36291;SDS011;22327;51.208;6.418;2023-08-31T01:20:42;5.45;;;3.35;;
36291;SDS011;22327;51.208;6.418;2023-08-31T01:23:55;8.13;;;3.58;;
36291;SDS011;22327;51.208;6.418;2023-08-31T01:26:56;4.13;;;3.00;;
36291;SDS011;22327;51.208;6.418;2023-08-31T01:29:57;4.25;;;3.30;;
36291;SDS011;22327;51.208;6.418;2023-08-31T01:32:58;4.57;;;3.08;;
36291;SDS011;22327;51.208;6.418;2023-08-31T01:35:58;5.90;;;3.05;;
36291;SDS011;22327;51.208;6.418;2023-08-31T01:39:09;5.07;;;3.13;;
36291;SDS011;22327;51.208;6.418;2023-08-31T01:42:18;6.97;;;3.00;;
36291;SDS011;22327;51.208;6.418;2023-08-31T01:45:19;4.07;;;3.20;;
36291;SDS011;22327;51.208;6.418;2023-08-31T01:48:20;4.63;;;2.83;;
36291;SDS011;22327;51.208;6.418;2023-08-31T01:51:21;5.93;;;2.83;;
36291;SDS011;22327;51.208;6.418;2023-08-31T01:54:21;5.32;;;2.95;;
36291;SDS011;22327;51.208;6.418;2023-08-31T01:57:22;4.10;;;2.97;;
36291;SDS011;22327;51.208;6.418;2023-08-31T02:00:22;4.72;;;2.85;;
36291;SDS011;22327;51.208;6.418;2023-08-31T02:03:23;4.82;;;2.70;;
36291;SDS011;22327;51.208;6.418;2023-08-31T02:06:24;5.15;;;2.50;;
36291;SDS011;22327;51.208;6.418;2023-08-31T02:09:24;4.93;;;2.47;;
36291;SDS011;22327;51.208;6.418;2023-08-31T02:12:25;4.20;;;2.85;;
36291;SDS011;22327;51.208;6.418;2023-08-31T02:15:25;4.00;;;2.60;;
36291;SDS011;22327;51.208;6.418;2023-08-31T02:18:26;4.35;;;2.20;;
36291;SDS011;22327;51.208;6.418;2023-08-31T02:21:26;4.93;;;2.30;;
36291;SDS011;22327;51.208;6.418;2023-08-31T02:24:27;3.58;;;2.40;;
36291;SDS011;22327;51.208;6.418;2023-08-31T02:27:28;5.97;;;2.30;;
36291;SDS011;22327;51.208;6.418;2023-08-31T02:30:28;3.38;;;2.22;;
36291;SDS011;22327;51.208;6.418;2023-08-31T02:33:29;4.57;;;2.72;;
36291;SDS011;22327;51.208;6.418;2023-08-31T02:36:29;2.85;;;2.20;;
36291;SDS011;22327;51.208;6.418;2023-08-31T02:39:30;4.45;;;2.47;;
36291;SDS011;22327;51.208;6.418;2023-08-31T02:42:30;5.72;;;2.50;;
36291;SDS011;22327;51.208;6.418;2023-08-31T02:45:31;4.28;;;2.33;;
36291;SDS011;22327;51.208;6.418;2023-08-31T02:48:32;3.63;;;2.35;;
36291;SDS011;22327;51.208;6.418;2023-08-31T02:51:33;3.40;;;2.15;;
36291;SDS011;22327;51.208;6.418;2023-08-31T02:54:33;3.67;;;2.50;;
36291;SDS011;22327;51.208;6.418;2023-08-31T02:57:34;3.50;;;2.50;;
36291;SDS011;22327;51.208;6.418;2023-08-31T03:00:34;3.72;;;2.72;;
36291;SDS011;22327;51.208;6.418;2023-08-31T03:03:35;4.30;;;2.55;;
36291;SDS011;22327;51.208;6.418;2023-08-31T03:06:35;4.75;;;2.83;;
36291;SDS011;22327;51.208;6.418;2023-08-31T03:09:36;4.57;;;3.03;;
36291;SDS011;22327;51.208;6.418;2023-08-31T03:12:38;5.72;;;2.78;;
36291;SDS011;22327;51.208;6.418;2023-08-31T03:15:39;8.73;;;2.92;;
36291;SDS011;22327;51.208;6.418;2023-08-31T03:18:40;4.80;;;3.15;;
36291;SDS011;22327;51.208;6.418;2023-08-31T03:21:40;6.68;;;3.38;;
36291;SDS011;22327;51.208;6.418;2023-08-31T03:24:41;5.97;;;3.40;;
36291;SDS011;22327;51.208;6.418;2023-08-31T03:27:41;7.43;;;3.22;;
36291;SDS011;22327;51.208;6.418;2023-08-31T03:30:42;6.10;;;3.38;;
36291;SDS011;22327;51.208;6.418;2023-08-31T03:33:45;5.40;;;3.10;;
36291;SDS011;22327;51.208;6.418;2023-08-31T03:36:45;6.53;;;3.65;;
36291;SDS011;22327;51.208;6.418;2023-08-31T03:39:47;8.88;;;3.50;;
36291;SDS011;22327;51.208;6.418;2023-08-31T03:42:48;7.50;;;3.55;;
36291;SDS011;22327;51.208;6.418;2023-08-31T03:45:53;6.88;;;4.05;;
36291;SDS011;22327;51.208;6.418;2023-08-31T03:48:57;6.47;;;3.58;;
36291;SDS011;22327;51.208;6.418;2023-08-31T03:51:57;7.22;;;4.10;;
36291;SDS011;22327;51.208;6.418;2023-08-31T03:54:58;6.28;;;4.05;;
36291;SDS011;22327;51.208;6.418;2023-08-31T03:57:59;4.95;;;3.53;;
36291;SDS011;22327;51.208;6.418;2023-08-31T04:00:59;5.40;;;4.13;;
36291;SDS011;22327;51.208;6.418;2023-08-31T04:04:00;7.78;;;4.15;;
36291;SDS011;22327;51.208;6.418;2023-08-31T04:07:00;6.63;;;4.28;;
36291;SDS011;22327;51.208;6.418;2023-08-31T04:10:01;7.00;;;4.60;;
36291;SDS011;22327;51.208;6.418;2023-08-31T04:13:03;6.50;;;4.38;;
36291;SDS011;22327;51.208;6.418;2023-08-31T04:16:04;5.93;;;4.80;;
36291;SDS011;22327;51.208;6.418;2023-08-31T04:19:05;9.57;;;5.10;;
36291;SDS011;22327;51.208;6.418;2023-08-31T04:22:05;6.60;;;4.78;;
36291;SDS011;22327;51.208;6.418;2023-08-31T04:25:06;8.10;;;5.00;;
36291;SDS011;22327;51.208;6.418;2023-08-31T04:28:07;6.70;;;4.63;;
36291;SDS011;22327;51.208;6.418;2023-08-31T04:31:07;6.22;;;4.97;;
36291;SDS011;22327;51.208;6.418;2023-08-31T04:34:08;7.85;;;5.10;;
36291;SDS011;22327;51.208;6.418;2023-08-31T04:37:09;8.00;;;5.07;;
36291;SDS011;22327;51.208;6.418;2023-08-31T04:40:09;11.23;;;5.40;;
36291;SDS011;22327;51.208;6.418;2023-08-31T04:43:13;7.82;;;5.07;;
36291;SDS011;22327;51.208;6.418;2023-08-31T04:46:13;7.95;;;5.70;;
36291;SDS011;22327;51.208;6.418;2023-08-31T04:49:14;9.55;;;6.40;;
36291;SDS011;22327;51.208;6.418;2023-08-31T04:52:15;11.00;;;6.25;;
36291;SDS011;22327;51.208;6.418;2023-08-31T04:55:15;7.30;;;5.38;;
36291;SDS011;22327;51.208;6.418;2023-08-31T04:58:16;9.32;;;6.25;;
36291;SDS011;22327;51.208;6.418;2023-08-31T05:01:17;9.95;;;6.40;;
36291;SDS011;22327;51.208;6.418;2023-08-31T05:04:17;7.93;;;6.03;;
36291;SDS011;22327;51.208;6.418;2023-08-31T05:07:18;7.72;;;6.15;;
36291;SDS011;22327;51.208;6.418;2023-08-31T05:10:18;9.15;;;6.35;;
36291;SDS011;22327;51.208;6.418;2023-08-31T05:13:19;11.10;;;6.03;;
36291;SDS011;22327;51.208;6.418;2023-08-31T05:16:19;10.77;;;6.70;;
36291;SDS011;22327;51.208;6.418;2023-08-31T05:19:20;7.63;;;5.30;;
36291;SDS011;22327;51.208;6.418;2023-08-31T05:22:20;6.82;;;5.15;;
36291;SDS011;22327;51.208;6.418;2023-08-31T05:25:21;6.38;;;5.10;;
36291;SDS011;22327;51.208;6.418;2023-08-31T05:28:22;4.60;;;4.10;;
36291;SDS011;22327;51.208;6.418;2023-08-31T05:31:23;5.82;;;3.88;;
36291;SDS011;22327;51.208;6.418;2023-08-31T05:34:24;4.07;;;3.00;;
36291;SDS011;22327;51.208;6.418;2023-08-31T05:37:25;4.80;;;2.85;;
36291;SDS011;22327;51.208;6.418;2023-08-31T05:40:25;4.35;;;2.65;;
36291;SDS011;22327;51.208;6.418;2023-08-31T05:43:26;3.35;;;2.70;;
36291;SDS011;22327;51.208;6.418;2023-08-31T05:46:26;2.92;;;2.30;;
36291;SDS011;22327;51.208;6.418;2023-08-31T05:49:27;2.83;;;2.33;;
36291;SDS011;22327;51.208;6.418;2023-08-31T05:52:27;3.63;;;2.22;;
36291;SDS011;22327;51.208;6.418;2023-08-31T05:55:28;5.10;;;2.20;;
36291;SDS011;22327;51.208;6.418;2023-08-31T05:58:32;2.90;;;2.22;;
36291;SDS011;22327;51.208;6.418;2023-08-31T06:01:34;3.47;;;2.28;;
36291;SDS011;22327;51.208;6.418;2023-08-31T06:04:36;2.47;;;1.83;;
36291;SDS011;22327;51.208;6.418;2023-08-31T06:07:37;5.10;;;2.42;;
36291;SDS011;22327;51.208;6.418;2023-08-31T06:10:37;3.75;;;2.38;;
36291;SDS011;22327;51.208;6.418;2023-08-31T06:13:38;2.38;;;1.70;;
36291;SDS011;22327;51.208;6.418;2023-08-31T06:16:38;3.35;;;1.83;;
36291;SDS011;22327;51.208;6.418;2023-08-31T06:19:39;1.70;;;1.10;;
36291;SDS011;22327;51.208;6.418;2023-08-31T06:22:41;3.17;;;1.65;;
36291;SDS011;22327;51.208;6.418;2023-08-31T06:25:41;2.70;;;1.70;;
36291;SDS011;22327;51.208;6.418;2023-08-31T06:28:42;2.85;;;1.45;;
36291;SDS011;22327;51.208;6.418;2023-08-31T06:31:42;2.50;;;1.50;;
36291;SDS011;22327;51.208;6.418;2023-08-31T06:34:43;4.93;;;2.30;;
36291;SDS011;22327;51.208;6.418;2023-08-31T06:37:44;3.03;;;1.80;;
36291;SDS011;22327;51.208;6.418;2023-08-31T06:40:46;1.70;;;1.40;;
36291;SDS011;22327;51.208;6.418;2023-08-31T06:43:47;1.92;;;1.52;;
36291;SDS011;22327;51.208;6.418;2023-08-31T06:46:47;2.35;;;1.50;;
36291;SDS011;22327;51.208;6.418;2023-08-31T06:49:48;3.50;;;1.20;;
36291;SDS011;22327;51.208;6.418;2023-08-31T06:52:49;3.03;;;1.58;;
36291;SDS011;22327;51.208;6.418;2023-08-31T06:55:49;3.88;;;1.55;;
36291;SDS011;22327;51.208;6.418;2023-08-31T06:58:50;2.10;;;1.48;;
36291;SDS011;22327;51.208;6.418;2023-08-31T07:01:50;2.30;;;1.30;;
36291;SDS011;22327;51.208;6.418;2023-08-31T07:04:51;2.15;;;1.30;;
36291;SDS011;22327;51.208;6.418;2023-08-31T07:07:52;2.08;;;1.30;;
36291;SDS011;22327;51.208;6.418;2023-08-31T07:10:54;1.67;;;1.23;;
36291;SDS011;22327;51.208;6.418;2023-08-31T07:13:54;2.40;;;1.23;;
36291;SDS011;22327;51.208;6.418;2023-08-31T07:16:57;4.38;;;1.50;;
36291;SDS011;22327;51.208;6.418;2023-08-31T07:19:58;4.72;;;1.58;;
36291;SDS011;22327;51.208;6.418;2023-08-31T07:22:58;2.45;;;1.20;;
36291;SDS011;22327;51.208;6.418;2023-08-31T07:25:59;2.08;;;1.52;;
36291;SDS011;22327;51.208;6.418;2023-08-31T07:29:01;3.20;;;1.63;;
36291;SDS011;22327;51.208;6.418;2023-08-31T07:32:04;4.55;;;1.50;;
36291;SDS011;22327;51.208;6.418;2023-08-31T07:35:05;3.95;;;1.10;;
36291;SDS011;22327;51.208;6.418;2023-08-31T07:38:06;2.30;;;1.13;;
36291;SDS011;22327;51.208;6.418;2023-08-31T07:41:07;2.28;;;1.23;;
36291;SDS011;22327;51.208;6.418;2023-08-31T07:44:07;1.40;;;0.98;;
36291;SDS011;22327;51.208;6.418;2023-08-31T07:47:08;3.05;;;1.40;;
36291;SDS011;22327;51.208;6.418;2023-08-31T07:50:08;2.60;;;1.23;;
36291;SDS011;22327;51.208;6.418;2023-08-31T07:53:10;4.75;;;1.50;;
36291;SDS011;22327;51.208;6.418;2023-08-31T07:56:11;1.45;;;1.35;;
36291;SDS011;22327;51.208;6.418;2023-08-31T07:59:11;2.40;;;1.20;;
36291;SDS011;22327;51.208;6.418;2023-08-31T08:02:12;1.73;;;1.30;;
36291;SDS011;22327;51.208;6.418;2023-08-31T08:05:13;3.63;;;1.40;;
36291;SDS011;22327;51.208;6.418;2023-08-31T08:08:13;1.63;;;1.20;;
36291;SDS011;22327;51.208;6.418;2023-08-31T08:11:14;2.60;;;1.40;;
36291;SDS011;22327;51.208;6.418;2023-08-31T08:14:14;2.83;;;1.05;;
36291;SDS011;22327;51.208;6.418;2023-08-31T08:17:15;1.90;;;1.15;;
36291;SDS011;22327;51.208;6.418;2023-08-31T08:20:15;1.90;;;1.15;;
36291;SDS011;22327;51.208;6.418;2023-08-31T08:23:16;1.65;;;1.00;;
36291;SDS011;22327;51.208;6.418;2023-08-31T08:26:17;1.90;;;1.00;;
36291;SDS011;22327;51.208;6.418;2023-08-31T08:29:17;2.25;;;1.30;;
36291;SDS011;22327;51.208;6.418;2023-08-31T08:32:18;3.00;;;1.05;;
36291;SDS011;22327;51.208;6.418;2023-08-31T08:35:18;3.60;;;1.30;;
36291;SDS011;22327;51.208;6.418;2023-08-31T08:38:19;2.63;;;1.17;;
36291;SDS011;22327;51.208;6.418;2023-08-31T08:41:22;2.22;;;1.23;;
36291;SDS011;22327;51.208;6.418;2023-08-31T08:44:27;2.63;;;1.15;;
36291;SDS011;22327;51.208;6.418;2023-08-31T08:47:32;2.00;;;0.85;;
36291;SDS011;22327;51.208;6.418;2023-08-31T08:50:34;1.90;;;1.20;;
36291;SDS011;22327;51.208;6.418;2023-08-31T08:53:36;2.08;;;1.25;;
36291;SDS011;22327;51.208;6.418;2023-08-31T08:56:38;2.80;;;1.30;;
36291;SDS011;22327;51.208;6.418;2023-08-31T08:59:39;4.63;;;1.30;;
36291;SDS011;22327;51.208;6.418;2023-08-31T09:02:40;3.67;;;1.33;;
36291;SDS011;22327;51.208;6.418;2023-08-31T09:05:41;1.52;;;1.15;;
36291;SDS011;22327;51.208;6.418;2023-08-31T09:08:41;5.15;;;1.50;;
36291;SDS011;22327;51.208;6.418;2023-08-31T09:11:42;2.22;;;1.50;;
36291;SDS011;22327;51.208;6.418;2023-08-31T09:14:43;4.43;;;1.30;;
36291;SDS011;22327;51.208;6.418;2023-08-31T09:17:43;2.80;;;1.30;;
36291;SDS011;22327;51.208;6.418;2023-08-31T09:20:45;1.73;;;1.25;;
36291;SDS011;22327;51.208;6.418;2023-08-31T09:23:56;3.13;;;1.35;;
36291;SDS011;22327;51.208;6.418;2023-08-31T09:26:58;3.28;;;1.17;;
36291;SDS011;22327;51.208;6.418;2023-08-31T09:29:58;2.65;;;1.23;;
36291;SDS011;22327;51.208;6.418;2023-08-31T09:32:59;3.20;;;1.30;;
36291;SDS011;22327;51.208;6.418;2023-08-31T09:35:59;1.98;;;1.20;;
36291;SDS011;22327;51.208;6.418;2023-08-31T09:39:01;2.65;;;1.13;;
36291;SDS011;22327;51.208;6.418;2023-08-31T09:42:02;1.85;;;0.98;;
36291;SDS011;22327;51.208;6.418;2023-08-31T09:45:03;4.13;;;1.42;;
36291;SDS011;22327;51.208;6.418;2023-08-31T09:48:04;4.18;;;1.42;;
36291;SDS011;22327;51.208;6.418;2023-08-31T09:51:05;2.30;;;1.20;;
36291;SDS011;22327;51.208;6.418;2023-08-31T09:54:07;2.95;;;1.42;;
36291;SDS011;22327;51.208;6.418;2023-08-31T09:57:09;3.45;;;1.42;;
36291;SDS011;22327;51.208;6.418;2023-08-31T10:00:11;4.30;;;1.52;;
36291;SDS011;22327;51.208;6.418;2023-08-31T10:03:15;4.22;;;1.50;;
36291;SDS011;22327;51.208;6.418;2023-08-31T10:06:16;3.40;;;1.40;;
36291;SDS011;22327;51.208;6.418;2023-08-31T10:09:18;3.10;;;1.42;;
36291;SDS011;22327;51.208;6.418;2023-08-31T10:12:19;4.25;;;1.48;;
36291;SDS011;22327;51.208;6.418;2023-08-31T10:15:22;3.75;;;1.52;;
36291;SDS011;22327;51.208;6.418;2023-08-31T10:18:23;4.50;;;1.67;;
36291;SDS011;22327;51.208;6.418;2023-08-31T10:21:24;2.90;;;1.40;;
36291;SDS011;22327;51.208;6.418;2023-08-31T10:28:15;3.47;;;1.40;;
36291;SDS011;22327;51.208;6.418;2023-08-31T10:31:17;2.97;;;1.40;;
36291;SDS011;22327;51.208;6.418;2023-08-31T10:34:19;4.72;;;1.52;;
36291;SDS011;22327;51.208;6.418;2023-08-31T10:37:39;2.65;;;1.50;;
36291;SDS011;22327;51.208;6.418;2023-08-31T10:40:40;2.83;;;1.40;;
36291;SDS011;22327;51.208;6.418;2023-08-31T10:43:48;2.60;;;1.27;;
36291;SDS011;22327;51.208;6.418;2023-08-31T10:46:53;3.22;;;1.20;;
36291;SDS011;22327;51.208;6.418;2023-08-31T10:49:53;2.15;;;1.30;;
36291;SDS011;22327;51.208;6.418;2023-08-31T10:53:07;4.05;;;1.20;;
36291;SDS011;22327;51.208;6.418;2023-08-31T10:56:09;2.67;;;1.15;;
36291;SDS011;22327;51.208;6.418;2023-08-31T10:59:10;3.50;;;1.65;;
36291;SDS011;22327;51.208;6.418;2023-08-31T11:02:10;4.95;;;1.75;;
36291;SDS011;22327;51.208;6.418;2023-08-31T11:05:31;2.33;;;1.45;;
36291;SDS011;22327;51.208;6.418;2023-08-31T11:08:32;3.83;;;1.48;;
36291;SDS011;22327;51.208;6.418;2023-08-31T11:11:38;3.47;;;1.48;;
36291;SDS011;22327;51.208;6.418;2023-08-31T11:14:39;3.13;;;1.35;;
36291;SDS011;22327;51.208;6.418;2023-08-31T11:17:41;4.13;;;1.58;;
36291;SDS011;22327;51.208;6.418;2023-08-31T11:20:42;3.55;;;1.42;;
36291;SDS011;22327;51.208;6.418;2023-08-31T11:23:43;1.77;;;1.15;;
36291;SDS011;22327;51.208;6.418;2023-08-31T11:26:43;1.60;;;1.10;;
36291;SDS011;22327;51.208;6.418;2023-08-31T11:29:44;3.47;;;1.77;;
36291;SDS011;22327;51.208;6.418;2023-08-31T11:32:48;3.75;;;1.48;;
36291;SDS011;22327;51.208;6.418;2023-08-31T11:35:50;3.05;;;1.50;;
36291;SDS011;22327;51.208;6.418;2023-08-31T11:38:51;3.00;;;1.50;;
36291;SDS011;22327;51.208;6.418;2023-08-31T11:41:52;2.65;;;1.08;;
36291;SDS011;22327;51.208;6.418;2023-08-31T11:44:53;4.95;;;1.67;;
36291;SDS011;22327;51.208;6.418;2023-08-31T11:47:53;3.30;;;1.00;;
36291;SDS011;22327;51.208;6.418;2023-08-31T11:50:55;3.67;;;1.20;;
36291;SDS011;22327;51.208;6.418;2023-08-31T11:53:56;3.00;;;1.20;;
36291;SDS011;22327;51.208;6.418;2023-08-31T11:56:58;4.78;;;2.85;;
36291;SDS011;22327;51.208;6.418;2023-08-31T11:59:59;8.13;;;5.18;;
36291;SDS011;22327;51.208;6.418;2023-08-31T12:03:03;37.75;;;26.10;;
36291;SDS011;22327;51.208;6.418;2023-08-31T12:06:04;29.58;;;21.00;;
36291;SDS011;22327;51.208;6.418;2023-08-31T12:09:06;17.75;;;12.55;;
36291;SDS011;22327;51.208;6.418;2023-08-31T12:12:11;7.35;;;4.68;;
36291;SDS011;22327;51.208;6.418;2023-08-31T12:18:15;10.27;;;5.60;;
36291;SDS011;22327;51.208;6.418;2023-08-31T12:21:15;12.13;;;7.95;;
36291;SDS011;22327;51.208;6.418;2023-08-31T12:24:20;7.60;;;4.63;;
36291;SDS011;22327;51.208;6.418;2023-08-31T12:27:22;3.45;;;1.95;;
36291;SDS011;22327;51.208;6.418;2023-08-31T12:30:22;7.55;;;4.55;;
36291;SDS011;22327;51.208;6.418;2023-08-31T12:33:23;6.15;;;4.18;;
36291;SDS011;22327;51.208;6.418;2023-08-31T12:36:24;33.15;;;24.38;;
36291;SDS011;22327;51.208;6.418;2023-08-31T12:39:26;74.47;;;51.45;;
36291;SDS011;22327;51.208;6.418;2023-08-31T12:42:26;55.00;;;40.53;;
36291;SDS011;22327;51.208;6.418;2023-08-31T12:45:27;9.25;;;6.10;;
36291;SDS011;22327;51.208;6.418;2023-08-31T12:48:28;10.30;;;5.80;;
36291;SDS011;22327;51.208;6.418;2023-08-31T12:51:28;12.18;;;8.00;;
36291;SDS011;22327;51.208;6.418;2023-08-31T12:54:30;10.77;;;6.85;;
36291;SDS011;22327;51.208;6.418;2023-08-31T12:57:30;4.10;;;2.25;;
36291;SDS011;22327;51.208;6.418;2023-08-31T13:00:31;8.40;;;5.03;;
36291;SDS011;22327;51.208;6.418;2023-08-31T13:03:32;5.68;;;3.40;;
36291;SDS011;22327;51.208;6.418;2023-08-31T13:06:32;8.02;;;6.03;;
36291;SDS011;22327;51.208;6.418;2023-08-31T13:09:33;4.97;;;4.05;;
36291;SDS011;22327;51.208;6.418;2023-08-31T13:12:33;4.45;;;2.85;;
36291;SDS011;22327;51.208;6.418;2023-08-31T13:15:34;5.22;;;2.53;;
36291;SDS011;22327;51.208;6.418;2023-08-31T13:18:35;5.35;;;2.53;;
36291;SDS011;22327;51.208;6.418;2023-08-31T13:21:35;3.83;;;2.88;;
36291;SDS011;22327;51.208;6.418;2023-08-31T13:24:37;3.90;;;2.58;;
36291;SDS011;22327;51.208;6.418;2023-08-31T13:27:37;3.92;;;1.95;;
36291;SDS011;22327;51.208;6.418;2023-08-31T13:30:38;7.35;;;5.10;;
36291;SDS011;22327;51.208;6.418;2023-08-31T13:33:38;5.22;;;2.30;;
36291;SDS011;22327;51.208;6.418;2023-08-31T13:36:39;4.55;;;2.17;;
36291;SDS011;22327;51.208;6.418;2023-08-31T13:39:41;5.47;;;3.03;;
36291;SDS011;22327;51.208;6.418;2023-08-31T13:42:49;3.10;;;1.95;;
36291;SDS011;22327;51.208;6.418;2023-08-31T13:45:54;5.57;;;2.55;;
36291;SDS011;22327;51.208;6.418;2023-08-31T13:48:55;4.70;;;1.83;;
36291;SDS011;22327;51.208;6.418;2023-08-31T13:51:56;4.65;;;2.10;;
36291;SDS011;22327;51.208;6.418;2023-08-31T13:54:56;4.78;;;1.67;;
36291;SDS011;22327;51.208;6.418;2023-08-31T13:58:02;3.75;;;1.70;;
36291;SDS011;22327;51.208;6.418;2023-08-31T14:01:06;5.82;;;2.38;;
36291;SDS011;22327;51.208;6.418;2023-08-31T14:04:06;3.42;;;1.45;;
36291;SDS011;22327;51.208;6.418;2023-08-31T14:07:07;3.10;;;1.98;;
36291;SDS011;22327;51.208;6.418;2023-08-31T14:10:08;2.97;;;1.35;;
36291;SDS011;22327;51.208;6.418;2023-08-31T14:13:08;1.70;;;1.38;;
36291;SDS011;22327;51.208;6.418;2023-08-31T14:16:09;6.53;;;2.10;;
36291;SDS011;22327;51.208;6.418;2023-08-31T14:19:09;2.85;;;1.05;;
36291;SDS011;22327;51.208;6.418;2023-08-31T14:22:11;2.53;;;1.27;;
36291;SDS011;22327;51.208;6.418;2023-08-31T14:25:12;4.03;;;2.15;;
36291;SDS011;22327;51.208;6.418;2023-08-31T14:28:13;2.03;;;1.40;;
36291;SDS011;22327;51.208;6.418;2023-08-31T14:31:13;2.47;;;1.38;;
36291;SDS011;22327;51.208;6.418;2023-08-31T14:34:15;3.92;;;1.70;;
36291;SDS011;22327;51.208;6.418;2023-08-31T14:37:16;3.42;;;2.92;;
36291;SDS011;22327;51.208;6.418;2023-08-31T14:40:16;33.35;;;23.98;;
36291;SDS011;22327;51.208;6.418;2023-08-31T14:43:17;13.55;;;9.73;;
36291;SDS011;22327;51.208;6.418;2023-08-31T14:46:17;10.77;;;6.28;;
36291;SDS011;22327;51.208;6.418;2023-08-31T14:49:18;5.90;;;4.35;;
36291;SDS011;22327;51.208;6.418;2023-08-31T14:52:18;12.20;;;6.13;;
36291;SDS011;22327;51.208;6.418;2023-08-31T14:55:19;8.15;;;3.88;;
36291;SDS011;22327;51.208;6.418;2023-08-31T14:58:19;11.35;;;6.72;;
36291;SDS011;22327;51.208;6.418;2023-08-31T15:01:20;5.95;;;2.83;;
36291;SDS011;22327;51.208;6.418;2023-08-31T15:04:23;7.68;;;3.42;;
36291;SDS011;22327;51.208;6.418;2023-08-31T15:07:23;5.10;;;3.00;;
36291;SDS011;22327;51.208;6.418;2023-08-31T15:10:24;7.65;;;5.32;;
36291;SDS011;22327;51.208;6.418;2023-08-31T15:13:24;5.35;;;2.90;;
36291;SDS011;22327;51.208;6.418;2023-08-31T15:16:24;5.95;;;3.50;;
36291;SDS011;22327;51.208;6.418;2023-08-31T15:19:25;5.30;;;2.78;;
36291;SDS011;22327;51.208;6.418;2023-08-31T15:22:25;6.60;;;3.38;;
36291;SDS011;22327;51.208;6.418;2023-08-31T15:25:26;5.65;;;3.45;;
36291;SDS011;22327;51.208;6.418;2023-08-31T15:28:27;4.35;;;2.55;;
36291;SDS011;22327;51.208;6.418;2023-08-31T15:31:27;4.80;;;2.95;;
36291;SDS011;22327;51.208;6.418;2023-08-31T15:34:28;3.67;;;2.72;;
36291;SDS011;22327;51.208;6.418;2023-08-31T15:37:28;3.72;;;2.10;;
36291;SDS011;22327;51.208;6.418;2023-08-31T15:40:29;4.00;;;2.15;;
36291;SDS011;22327;51.208;6.418;2023-08-31T15:43:30;2.50;;;2.28;;
36291;SDS011;22327;51.208;6.418;2023-08-31T15:46:32;5.07;;;2.55;;
36291;SDS011;22327;51.208;6.418;2023-08-31T15:49:32;3.97;;;2.20;;
36291;SDS011;22327;51.208;6.418;2023-08-31T15:52:33;4.32;;;2.40;;
36291;SDS011;22327;51.208;6.418;2023-08-31T15:55:33;5.57;;;3.75;;
36291;SDS011;22327;51.208;6.418;2023-08-31T15:58:34;4.32;;;2.10;;
36291;SDS011;22327;51.208;6.418;2023-08-31T16:01:34;3.88;;;2.30;;
36291;SDS011;22327;51.208;6.418;2023-08-31T16:04:36;4.93;;;3.35;;
36291;SDS011;22327;51.208;6.418;2023-08-31T16:07:37;3.50;;;1.58;;
36291;SDS011;22327;51.208;6.418;2023-08-31T16:10:39;4.85;;;2.83;;
36291;SDS011;22327;51.208;6.418;2023-08-31T16:13:40;4.80;;;2.78;;
36291;SDS011;22327;51.208;6.418;2023-08-31T16:16:42;2.40;;;1.67;;
36291;SDS011;22327;51.208;6.418;2023-08-31T16:19:42;5.30;;;2.20;;
36291;SDS011;22327;51.208;6.418;2023-08-31T16:22:42;2.83;;;2.28;;
36291;SDS011;22327;51.208;6.418;2023-08-31T16:25:43;4.50;;;2.25;;
36291;SDS011;22327;51.208;6.418;2023-08-31T16:28:43;3.80;;;2.63;;
36291;SDS011;22327;51.208;6.418;2023-08-31T16:31:44;4.30;;;1.70;;
36291;SDS011;22327;51.208;6.418;2023-08-31T16:34:45;3.25;;;1.60;;
36291;SDS011;22327;51.208;6.418;2023-08-31T16:37:45;4.72;;;1.90;;
36291;SDS011;22327;51.208;6.418;2023-08-31T16:40:46;5.07;;;3.85;;
36291;SDS011;22327;51.208;6.418;2023-08-31T16:43:46;3.90;;;1.83;;
36291;SDS011;22327;51.208;6.418;2023-08-31T16:46:47;3.40;;;2.30;;
36291;SDS011;22327;51.208;6.418;2023-08-31T16:49:48;7.47;;;4.95;;
36291;SDS011;22327;51.208;6.418;2023-08-31T16:52:49;3.92;;;2.03;;
36291;SDS011;22327;51.208;6.418;2023-08-31T16:55:49;3.38;;;2.05;;
36291;SDS011;22327;51.208;6.418;2023-08-31T16:58:50;5.35;;;3.28;;
36291;SDS011;22327;51.208;6.418;2023-08-31T17:01:52;2.97;;;2.03;;
36291;SDS011;22327;51.208;6.418;2023-08-31T17:04:53;4.55;;;2.13;;
36291;SDS011;22327;51.208;6.418;2023-08-31T17:07:55;4.10;;;1.75;;
36291;SDS011;22327;51.208;6.418;2023-08-31T17:10:55;4.75;;;2.28;;
36291;SDS011;22327;51.208;6.418;2023-08-31T17:13:56;5.30;;;2.70;;
36291;SDS011;22327;51.208;6.418;2023-08-31T17:16:56;2.10;;;1.58;;
36291;SDS011;22327;51.208;6.418;2023-08-31T17:20:00;3.17;;;2.05;;
36291;SDS011;22327;51.208;6.418;2023-08-31T17:23:01;6.60;;;1.70;;
36291;SDS011;22327;51.208;6.418;2023-08-31T17:26:02;2.95;;;1.80;;
36291;SDS011;22327;51.208;6.418;2023-08-31T17:29:03;4.43;;;2.20;;
36291;SDS011;22327;51.208;6.418;2023-08-31T17:32:06;4.90;;;2.13;;
36291;SDS011;22327;51.208;6.418;2023-08-31T17:35:07;3.28;;;1.67;;
36291;SDS011;22327;51.208;6.418;2023-08-31T17:38:07;5.70;;;2.10;;
36291;SDS011;22327;51.208;6.418;2023-08-31T17:41:08;4.00;;;2.60;;
36291;SDS011;22327;51.208;6.418;2023-08-31T17:44:10;5.70;;;2.08;;
36291;SDS011;22327;51.208;6.418;2023-08-31T17:47:11;2.97;;;2.08;;
36291;SDS011;22327;51.208;6.418;2023-08-31T17:50:11;6.30;;;2.85;;
36291;SDS011;22327;51.208;6.418;2023-08-31T17:53:12;4.75;;;1.63;;
36291;SDS011;22327;51.208;6.418;2023-08-31T17:56:12;2.72;;;1.92;;
36291;SDS011;22327;51.208;6.418;2023-08-31T17:59:13;3.67;;;1.77;;
36291;SDS011;22327;51.208;6.418;2023-08-31T18:02:17;3.88;;;1.50;;
36291;SDS011;22327;51.208;6.418;2023-08-31T18:05:18;4.43;;;1.77;;
36291;SDS011;22327;51.208;6.418;2023-08-31T18:08:21;4.28;;;1.65;;
36291;SDS011;22327;51.208;6.418;2023-08-31T18:11:23;4.40;;;1.95;;
36291;SDS011;22327;51.208;6.418;2023-08-31T18:14:24;5.20;;;1.83;;
36291;SDS011;22327;51.208;6.418;2023-08-31T18:17:24;3.25;;;1.77;;
36291;SDS011;22327;51.208;6.418;2023-08-31T18:20:25;3.45;;;1.90;;